sensor_id;sensor_type;location;lat;lon;timestamp;temperature;humidity
66190;DHT22;52992;52.084;5.412;2023-08-06T00:02:06;20.20;82.00
66190;DHT22;52992;52.084;5.412;2023-08-06T00:04:33;20.20;81.70
66190;DHT22;52992;52.084;5.412;2023-08-06T00:07:00;20.20;81.90
66190;DHT22;52992;52.084;5.412;2023-08-06T00:09:27;20.20;82.10
66190;DHT22;52992;52.084;5.412;2023-08-06T00:11:54;20.20;82.20
66190;DHT22;52992;52.084;5.412;2023-08-06T00:14:21;20.20;81.80
66190;DHT22;52992;52.084;5.412;2023-08-06T00:16:48;20.20;82.00
66190;DHT22;52992;52.084;5.412;2023-08-06T00:19:15;20.20;81.80
66190;DHT22;52992;52.084;5.412;2023-08-06T00:21:42;20.20;81.90
66190;DHT22;52992;52.084;5.412;2023-08-06T00:24:08;20.20;82.00
66190;DHT22;52992;52.084;5.412;2023-08-06T00:26:35;20.20;82.60
66190;DHT22;52992;52.084;5.412;2023-08-06T00:29:02;20.20;81.90
66190;DHT22;52992;52.084;5.412;2023-08-06T00:31:29;20.20;82.00
66190;DHT22;52992;52.084;5.412;2023-08-06T00:33:56;20.20;81.90
66190;DHT22;52992;52.084;5.412;2023-08-06T00:36:23;20.20;81.90
66190;DHT22;52992;52.084;5.412;2023-08-06T00:38:50;20.20;81.80
66190;DHT22;52992;52.084;5.412;2023-08-06T00:41:17;20.20;81.80
66190;DHT22;52992;52.084;5.412;2023-08-06T00:43:43;20.20;81.80
66190;DHT22;52992;52.084;5.412;2023-08-06T00:46:11;20.20;81.50
66190;DHT22;52992;52.084;5.412;2023-08-06T00:48:38;20.20;81.50
66190;DHT22;52992;52.084;5.412;2023-08-06T00:51:06;20.20;81.60
66190;DHT22;52992;52.084;5.412;2023-08-06T00:53:33;20.30;81.60
66190;DHT22;52992;52.084;5.412;2023-08-06T00:56:00;20.30;81.50
66190;DHT22;52992;52.084;5.412;2023-08-06T00:58:28;20.30;81.50
66190;DHT22;52992;52.084;5.412;2023-08-06T01:00:55;20.30;81.50
66190;DHT22;52992;52.084;5.412;2023-08-06T01:03:23;20.30;81.40
66190;DHT22;52992;52.084;5.412;2023-08-06T01:05:50;20.30;81.30
66190;DHT22;52992;52.084;5.412;2023-08-06T01:11:24;20.30;81.50
66190;DHT22;52992;52.084;5.412;2023-08-06T01:14:08;20.30;81.50
66190;DHT22;52992;52.084;5.412;2023-08-06T01:16:40;20.30;82.10
66190;DHT22;52992;52.084;5.412;2023-08-06T01:19:20;20.30;81.20
66190;DHT22;52992;52.084;5.412;2023-08-06T01:21:47;20.30;81.20
66190;DHT22;52992;52.084;5.412;2023-08-06T01:24:16;20.30;81.10
66190;DHT22;52992;52.084;5.412;2023-08-06T01:26:48;20.30;81.10
66190;DHT22;52992;52.084;5.412;2023-08-06T01:29:23;20.30;81.10
66190;DHT22;52992;52.084;5.412;2023-08-06T01:31:53;20.30;80.90
66190;DHT22;52992;52.084;5.412;2023-08-06T01:34:23;20.30;80.80
66190;DHT22;52992;52.084;5.412;2023-08-06T01:36:51;20.30;81.00
66190;DHT22;52992;52.084;5.412;2023-08-06T01:39:18;20.20;81.00
66190;DHT22;52992;52.084;5.412;2023-08-06T01:41:49;20.20;81.10
66190;DHT22;52992;52.084;5.412;2023-08-06T01:44:17;20.20;81.00
66190;DHT22;52992;52.084;5.412;2023-08-06T01:46:43;20.20;80.90
66190;DHT22;52992;52.084;5.412;2023-08-06T01:49:10;20.20;81.00
66190;DHT22;52992;52.084;5.412;2023-08-06T01:51:37;20.20;80.70
66190;DHT22;52992;52.084;5.412;2023-08-06T01:54:04;20.20;80.70
66190;DHT22;52992;52.084;5.412;2023-08-06T01:56:31;20.20;80.60
66190;DHT22;52992;52.084;5.412;2023-08-06T01:58:58;20.20;80.40
66190;DHT22;52992;52.084;5.412;2023-08-06T02:01:28;20.20;80.50
66190;DHT22;52992;52.084;5.412;2023-08-06T02:03:55;20.20;80.40
66190;DHT22;52992;52.084;5.412;2023-08-06T02:06:22;20.10;80.50
66190;DHT22;52992;52.084;5.412;2023-08-06T02:08:49;20.10;80.90
66190;DHT22;52992;52.084;5.412;2023-08-06T02:11:16;20.00;81.60
66190;DHT22;52992;52.084;5.412;2023-08-06T02:13:43;19.90;82.60
66190;DHT22;52992;52.084;5.412;2023-08-06T02:16:16;19.90;83.00
66190;DHT22;52992;52.084;5.412;2023-08-06T02:18:43;19.80;83.50
66190;DHT22;52992;52.084;5.412;2023-08-06T02:21:10;19.80;83.70
66190;DHT22;52992;52.084;5.412;2023-08-06T02:23:37;19.70;84.20
66190;DHT22;52992;52.084;5.412;2023-08-06T02:26:04;19.70;84.50
66190;DHT22;52992;52.084;5.412;2023-08-06T02:28:31;19.70;84.70
66190;DHT22;52992;52.084;5.412;2023-08-06T02:30:59;19.70;84.90
66190;DHT22;52992;52.084;5.412;2023-08-06T02:33:26;19.70;84.90
66190;DHT22;52992;52.084;5.412;2023-08-06T02:36:02;19.70;85.10
66190;DHT22;52992;52.084;5.412;2023-08-06T02:38:31;19.60;85.50
66190;DHT22;52992;52.084;5.412;2023-08-06T02:40:58;19.60;85.80
66190;DHT22;52992;52.084;5.412;2023-08-06T02:43:25;19.60;86.10
66190;DHT22;52992;52.084;5.412;2023-08-06T02:45:56;19.60;86.10
66190;DHT22;52992;52.084;5.412;2023-08-06T02:48:23;19.60;86.20
66190;DHT22;52992;52.084;5.412;2023-08-06T02:50:49;19.60;86.50
66190;DHT22;52992;52.084;5.412;2023-08-06T02:53:16;19.60;86.50
66190;DHT22;52992;52.084;5.412;2023-08-06T02:55:48;19.60;86.20
66190;DHT22;52992;52.084;5.412;2023-08-06T02:58:19;19.60;86.40
66190;DHT22;52992;52.084;5.412;2023-08-06T03:01:08;19.60;86.10
66190;DHT22;52992;52.084;5.412;2023-08-06T03:03:43;19.60;86.60
66190;DHT22;52992;52.084;5.412;2023-08-06T03:06:17;19.60;86.60
66190;DHT22;52992;52.084;5.412;2023-08-06T03:08:48;19.60;86.80
66190;DHT22;52992;52.084;5.412;2023-08-06T03:11:15;19.60;86.90
66190;DHT22;52992;52.084;5.412;2023-08-06T03:13:42;19.70;87.10
66190;DHT22;52992;52.084;5.412;2023-08-06T03:16:10;19.70;86.90
66190;DHT22;52992;52.084;5.412;2023-08-06T03:18:38;19.70;87.30
66190;DHT22;52992;52.084;5.412;2023-08-06T03:21:07;19.80;86.80
66190;DHT22;52992;52.084;5.412;2023-08-06T03:23:34;19.80;86.60
66190;DHT22;52992;52.084;5.412;2023-08-06T03:26:02;19.80;86.50
66190;DHT22;52992;52.084;5.412;2023-08-06T03:28:31;19.80;86.70
66190;DHT22;52992;52.084;5.412;2023-08-06T03:31:00;19.80;86.40
66190;DHT22;52992;52.084;5.412;2023-08-06T03:33:33;19.80;86.10
66190;DHT22;52992;52.084;5.412;2023-08-06T03:36:01;19.90;86.30
66190;DHT22;52992;52.084;5.412;2023-08-06T03:38:29;19.80;86.00
66190;DHT22;52992;52.084;5.412;2023-08-06T03:40:56;19.90;86.00
66190;DHT22;52992;52.084;5.412;2023-08-06T03:43:23;19.90;86.10
66190;DHT22;52992;52.084;5.412;2023-08-06T03:45:51;19.80;85.80
66190;DHT22;52992;52.084;5.412;2023-08-06T03:48:18;19.90;86.20
66190;DHT22;52992;52.084;5.412;2023-08-06T03:50:45;19.90;86.00
66190;DHT22;52992;52.084;5.412;2023-08-06T03:53:14;19.90;85.70
66190;DHT22;52992;52.084;5.412;2023-08-06T03:55:41;19.90;85.80
66190;DHT22;52992;52.084;5.412;2023-08-06T03:58:08;19.90;85.70
66190;DHT22;52992;52.084;5.412;2023-08-06T04:00:35;19.90;85.80
66190;DHT22;52992;52.084;5.412;2023-08-06T04:03:02;19.90;86.00
66190;DHT22;52992;52.084;5.412;2023-08-06T04:05:31;19.90;85.60
66190;DHT22;52992;52.084;5.412;2023-08-06T04:07:59;19.90;85.60
66190;DHT22;52992;52.084;5.412;2023-08-06T04:10:26;19.90;85.60
66190;DHT22;52992;52.084;5.412;2023-08-06T04:12:53;19.90;85.10
66190;DHT22;52992;52.084;5.412;2023-08-06T04:15:20;19.90;85.30
66190;DHT22;52992;52.084;5.412;2023-08-06T04:17:47;20.00;85.20
66190;DHT22;52992;52.084;5.412;2023-08-06T04:20:14;20.00;84.90
66190;DHT22;52992;52.084;5.412;2023-08-06T04:22:40;19.90;84.70
66190;DHT22;52992;52.084;5.412;2023-08-06T04:25:08;19.90;84.70
66190;DHT22;52992;52.084;5.412;2023-08-06T04:27:35;19.90;84.80
66190;DHT22;52992;52.084;5.412;2023-08-06T04:30:05;19.90;84.70
66190;DHT22;52992;52.084;5.412;2023-08-06T04:32:36;19.90;84.70
66190;DHT22;52992;52.084;5.412;2023-08-06T04:35:03;19.90;84.60
66190;DHT22;52992;52.084;5.412;2023-08-06T04:37:31;19.90;84.20
66190;DHT22;52992;52.084;5.412;2023-08-06T04:39:57;19.90;84.50
66190;DHT22;52992;52.084;5.412;2023-08-06T04:42:24;20.00;84.40
66190;DHT22;52992;52.084;5.412;2023-08-06T04:44:51;20.00;84.20
66190;DHT22;52992;52.084;5.412;2023-08-06T04:47:18;20.00;83.90
66190;DHT22;52992;52.084;5.412;2023-08-06T04:49:46;19.90;84.20
66190;DHT22;52992;52.084;5.412;2023-08-06T04:52:12;19.90;84.00
66190;DHT22;52992;52.084;5.412;2023-08-06T04:54:39;19.90;84.20
66190;DHT22;52992;52.084;5.412;2023-08-06T04:57:06;20.00;84.10
66190;DHT22;52992;52.084;5.412;2023-08-06T04:59:33;20.00;84.10
66190;DHT22;52992;52.084;5.412;2023-08-06T05:02:00;20.00;83.90
66190;DHT22;52992;52.084;5.412;2023-08-06T05:04:27;20.00;83.90
66190;DHT22;52992;52.084;5.412;2023-08-06T05:06:54;19.90;83.80
66190;DHT22;52992;52.084;5.412;2023-08-06T05:09:21;19.90;83.70
66190;DHT22;52992;52.084;5.412;2023-08-06T05:11:49;19.90;83.80
66190;DHT22;52992;52.084;5.412;2023-08-06T05:14:16;19.90;83.60
66190;DHT22;52992;52.084;5.412;2023-08-06T05:16:43;19.90;83.90
66190;DHT22;52992;52.084;5.412;2023-08-06T05:19:09;19.90;84.60
66190;DHT22;52992;52.084;5.412;2023-08-06T05:21:36;19.90;83.90
66190;DHT22;52992;52.084;5.412;2023-08-06T05:24:03;19.90;83.80
66190;DHT22;52992;52.084;5.412;2023-08-06T05:26:30;19.90;83.30
66190;DHT22;52992;52.084;5.412;2023-08-06T05:28:57;19.90;83.50
66190;DHT22;52992;52.084;5.412;2023-08-06T05:31:24;19.90;83.50
66190;DHT22;52992;52.084;5.412;2023-08-06T05:33:51;20.00;83.30
66190;DHT22;52992;52.084;5.412;2023-08-06T05:36:17;20.00;83.60
66190;DHT22;52992;52.084;5.412;2023-08-06T05:38:44;20.00;83.30
66190;DHT22;52992;52.084;5.412;2023-08-06T05:41:11;20.00;83.20
66190;DHT22;52992;52.084;5.412;2023-08-06T05:43:39;20.00;83.00
66190;DHT22;52992;52.084;5.412;2023-08-06T05:46:05;20.00;83.20
66190;DHT22;52992;52.084;5.412;2023-08-06T05:48:32;20.00;83.20
66190;DHT22;52992;52.084;5.412;2023-08-06T05:50:59;20.00;83.00
66190;DHT22;52992;52.084;5.412;2023-08-06T05:53:26;20.00;82.90
66190;DHT22;52992;52.084;5.412;2023-08-06T05:55:53;20.00;82.90
66190;DHT22;52992;52.084;5.412;2023-08-06T05:58:20;20.00;83.20
66190;DHT22;52992;52.084;5.412;2023-08-06T06:00:47;19.90;83.10
66190;DHT22;52992;52.084;5.412;2023-08-06T06:03:14;19.90;83.20
66190;DHT22;52992;52.084;5.412;2023-08-06T06:05:41;19.90;83.30
66190;DHT22;52992;52.084;5.412;2023-08-06T06:08:08;19.90;83.00
66190;DHT22;52992;52.084;5.412;2023-08-06T06:10:35;19.90;82.90
66190;DHT22;52992;52.084;5.412;2023-08-06T06:13:02;20.00;82.80
66190;DHT22;52992;52.084;5.412;2023-08-06T06:15:29;20.00;82.70
66190;DHT22;52992;52.084;5.412;2023-08-06T06:17:56;20.00;82.80
66190;DHT22;52992;52.084;5.412;2023-08-06T06:20:23;20.10;82.60
66190;DHT22;52992;52.084;5.412;2023-08-06T06:22:50;20.10;82.50
66190;DHT22;52992;52.084;5.412;2023-08-06T06:25:17;20.10;83.10
66190;DHT22;52992;52.084;5.412;2023-08-06T06:27:43;20.10;82.50
66190;DHT22;52992;52.084;5.412;2023-08-06T06:30:11;20.10;82.40
66190;DHT22;52992;52.084;5.412;2023-08-06T06:32:39;20.10;82.20
66190;DHT22;52992;52.084;5.412;2023-08-06T06:35:08;20.00;82.00
66190;DHT22;52992;52.084;5.412;2023-08-06T06:37:35;20.00;82.10
66190;DHT22;52992;52.084;5.412;2023-08-06T06:40:02;20.00;82.20
66190;DHT22;52992;52.084;5.412;2023-08-06T06:42:30;19.90;82.00
66190;DHT22;52992;52.084;5.412;2023-08-06T06:45:00;19.90;82.30
66190;DHT22;52992;52.084;5.412;2023-08-06T06:47:27;20.00;82.80
66190;DHT22;52992;52.084;5.412;2023-08-06T06:49:54;20.00;83.40
66190;DHT22;52992;52.084;5.412;2023-08-06T06:52:21;20.00;83.60
66190;DHT22;52992;52.084;5.412;2023-08-06T06:54:48;20.00;84.20
66190;DHT22;52992;52.084;5.412;2023-08-06T06:57:15;20.00;84.10
66190;DHT22;52992;52.084;5.412;2023-08-06T06:59:42;20.00;84.40
66190;DHT22;52992;52.084;5.412;2023-08-06T07:02:08;20.00;85.00
66190;DHT22;52992;52.084;5.412;2023-08-06T07:04:35;19.90;85.70
66190;DHT22;52992;52.084;5.412;2023-08-06T07:07:02;20.00;85.80
66190;DHT22;52992;52.084;5.412;2023-08-06T07:09:29;19.90;85.70
66190;DHT22;52992;52.084;5.412;2023-08-06T07:11:56;19.90;85.70
66190;DHT22;52992;52.084;5.412;2023-08-06T07:14:25;19.90;86.00
66190;DHT22;52992;52.084;5.412;2023-08-06T07:16:52;20.00;86.20
66190;DHT22;52992;52.084;5.412;2023-08-06T07:19:19;20.00;86.40
66190;DHT22;52992;52.084;5.412;2023-08-06T07:21:46;19.90;87.60
66190;DHT22;52992;52.084;5.412;2023-08-06T07:24:13;19.90;86.70
66190;DHT22;52992;52.084;5.412;2023-08-06T07:26:40;19.90;86.40
66190;DHT22;52992;52.084;5.412;2023-08-06T07:29:07;19.90;86.90
66190;DHT22;52992;52.084;5.412;2023-08-06T07:31:33;19.90;86.90
66190;DHT22;52992;52.084;5.412;2023-08-06T07:34:00;19.80;86.60
66190;DHT22;52992;52.084;5.412;2023-08-06T07:36:27;19.80;86.60
66190;DHT22;52992;52.084;5.412;2023-08-06T07:38:54;19.70;87.90
66190;DHT22;52992;52.084;5.412;2023-08-06T07:41:23;19.80;88.00
66190;DHT22;52992;52.084;5.412;2023-08-06T07:43:50;19.80;88.00
66190;DHT22;52992;52.084;5.412;2023-08-06T07:46:17;19.70;87.50
66190;DHT22;52992;52.084;5.412;2023-08-06T07:48:45;19.70;87.50
66190;DHT22;52992;52.084;5.412;2023-08-06T07:51:11;19.60;87.80
66190;DHT22;52992;52.084;5.412;2023-08-06T07:53:38;19.50;87.90
66190;DHT22;52992;52.084;5.412;2023-08-06T07:56:05;19.40;87.60
66190;DHT22;52992;52.084;5.412;2023-08-06T07:58:32;19.30;87.90
66190;DHT22;52992;52.084;5.412;2023-08-06T08:00:59;19.30;88.70
66190;DHT22;52992;52.084;5.412;2023-08-06T08:03:30;19.20;88.30
66190;DHT22;52992;52.084;5.412;2023-08-06T08:05:57;19.20;88.90
66190;DHT22;52992;52.084;5.412;2023-08-06T08:08:24;19.20;88.50
66190;DHT22;52992;52.084;5.412;2023-08-06T08:10:51;19.10;88.70
66190;DHT22;52992;52.084;5.412;2023-08-06T08:13:18;19.10;87.90
66190;DHT22;52992;52.084;5.412;2023-08-06T08:15:45;19.00;88.50
66190;DHT22;52992;52.084;5.412;2023-08-06T08:18:12;18.90;87.20
66190;DHT22;52992;52.084;5.412;2023-08-06T08:20:39;18.80;87.60
66190;DHT22;52992;52.084;5.412;2023-08-06T08:23:06;18.70;87.80
66190;DHT22;52992;52.084;5.412;2023-08-06T08:25:33;18.60;87.80
66190;DHT22;52992;52.084;5.412;2023-08-06T08:28:00;18.60;87.60
66190;DHT22;52992;52.084;5.412;2023-08-06T08:30:27;18.50;88.00
66190;DHT22;52992;52.084;5.412;2023-08-06T08:32:54;18.50;88.40
66190;DHT22;52992;52.084;5.412;2023-08-06T08:35:21;18.50;88.10
66190;DHT22;52992;52.084;5.412;2023-08-06T08:37:48;18.40;87.80
66190;DHT22;52992;52.084;5.412;2023-08-06T08:40:15;18.40;88.50
66190;DHT22;52992;52.084;5.412;2023-08-06T08:42:43;18.40;88.70
66190;DHT22;52992;52.084;5.412;2023-08-06T08:45:14;18.40;88.10
66190;DHT22;52992;52.084;5.412;2023-08-06T08:47:42;18.40;88.50
66190;DHT22;52992;52.084;5.412;2023-08-06T08:50:14;18.40;88.90
66190;DHT22;52992;52.084;5.412;2023-08-06T08:52:42;18.50;88.70
66190;DHT22;52992;52.084;5.412;2023-08-06T08:55:14;18.50;88.30
66190;DHT22;52992;52.084;5.412;2023-08-06T08:57:42;18.50;88.40
66190;DHT22;52992;52.084;5.412;2023-08-06T09:00:09;18.50;88.40
66190;DHT22;52992;52.084;5.412;2023-08-06T09:02:36;18.50;89.10
66190;DHT22;52992;52.084;5.412;2023-08-06T09:05:04;18.50;88.60
66190;DHT22;52992;52.084;5.412;2023-08-06T09:07:52;18.40;89.00
66190;DHT22;52992;52.084;5.412;2023-08-06T09:10:19;18.50;89.50
66190;DHT22;52992;52.084;5.412;2023-08-06T09:12:51;18.50;88.90
66190;DHT22;52992;52.084;5.412;2023-08-06T09:15:20;18.40;88.80
66190;DHT22;52992;52.084;5.412;2023-08-06T09:17:51;18.50;89.10
66190;DHT22;52992;52.084;5.412;2023-08-06T09:20:18;18.40;89.40
66190;DHT22;52992;52.084;5.412;2023-08-06T09:22:45;18.50;89.80
66190;DHT22;52992;52.084;5.412;2023-08-06T09:25:24;18.60;89.70
66190;DHT22;52992;52.084;5.412;2023-08-06T09:27:51;18.60;88.90
66190;DHT22;52992;52.084;5.412;2023-08-06T09:30:33;18.60;88.50
66190;DHT22;52992;52.084;5.412;2023-08-06T09:33:00;18.60;88.70
66190;DHT22;52992;52.084;5.412;2023-08-06T09:35:31;18.60;89.30
66190;DHT22;52992;52.084;5.412;2023-08-06T09:38:08;18.60;89.00
66190;DHT22;52992;52.084;5.412;2023-08-06T09:40:38;18.60;89.70
66190;DHT22;52992;52.084;5.412;2023-08-06T09:43:05;18.70;89.70
66190;DHT22;52992;52.084;5.412;2023-08-06T09:45:36;18.70;89.70
66190;DHT22;52992;52.084;5.412;2023-08-06T09:48:08;18.80;89.30
66190;DHT22;52992;52.084;5.412;2023-08-06T09:50:37;18.80;89.70
66190;DHT22;52992;52.084;5.412;2023-08-06T09:53:08;18.90;89.90
66190;DHT22;52992;52.084;5.412;2023-08-06T09:55:35;19.00;89.40
66190;DHT22;52992;52.084;5.412;2023-08-06T09:58:02;19.00;89.30
66190;DHT22;52992;52.084;5.412;2023-08-06T10:00:30;18.90;89.10
66190;DHT22;52992;52.084;5.412;2023-08-06T10:03:02;18.90;89.00
66190;DHT22;52992;52.084;5.412;2023-08-06T10:05:31;18.90;89.00
66190;DHT22;52992;52.084;5.412;2023-08-06T10:07:59;18.90;89.60
66190;DHT22;52992;52.084;5.412;2023-08-06T10:10:27;19.00;89.50
66190;DHT22;52992;52.084;5.412;2023-08-06T10:12:57;19.00;89.30
66190;DHT22;52992;52.084;5.412;2023-08-06T10:15:26;19.00;89.40
66190;DHT22;52992;52.084;5.412;2023-08-06T10:17:56;19.00;90.10
66190;DHT22;52992;52.084;5.412;2023-08-06T10:20:24;19.00;89.50
66190;DHT22;52992;52.084;5.412;2023-08-06T10:23:04;19.10;89.00
66190;DHT22;52992;52.084;5.412;2023-08-06T10:25:33;19.10;89.00
66190;DHT22;52992;52.084;5.412;2023-08-06T10:28:08;19.10;88.40
66190;DHT22;52992;52.084;5.412;2023-08-06T10:30:44;19.00;88.60
66190;DHT22;52992;52.084;5.412;2023-08-06T10:33:12;19.00;89.20
66190;DHT22;52992;52.084;5.412;2023-08-06T10:35:45;19.00;88.90
66190;DHT22;52992;52.084;5.412;2023-08-06T10:38:20;19.00;89.30
66190;DHT22;52992;52.084;5.412;2023-08-06T10:43:35;19.00;89.30
66190;DHT22;52992;52.084;5.412;2023-08-06T10:46:02;19.00;89.30
66190;DHT22;52992;52.084;5.412;2023-08-06T10:48:40;19.00;89.40
66190;DHT22;52992;52.084;5.412;2023-08-06T10:51:08;19.00;89.60
66190;DHT22;52992;52.084;5.412;2023-08-06T10:53:36;19.00;88.80
66190;DHT22;52992;52.084;5.412;2023-08-06T10:56:15;19.00;89.90
66190;DHT22;52992;52.084;5.412;2023-08-06T10:58:43;19.10;90.20
66190;DHT22;52992;52.084;5.412;2023-08-06T11:01:11;19.20;90.20
66190;DHT22;52992;52.084;5.412;2023-08-06T11:03:38;19.30;89.50
66190;DHT22;52992;52.084;5.412;2023-08-06T11:06:09;19.20;88.50
66190;DHT22;52992;52.084;5.412;2023-08-06T11:08:38;19.10;88.10
66190;DHT22;52992;52.084;5.412;2023-08-06T11:11:13;19.10;89.60
66190;DHT22;52992;52.084;5.412;2023-08-06T11:13:41;19.10;88.60
66190;DHT22;52992;52.084;5.412;2023-08-06T11:16:09;19.10;89.00
66190;DHT22;52992;52.084;5.412;2023-08-06T11:18:37;19.10;89.20
66190;DHT22;52992;52.084;5.412;2023-08-06T11:21:03;19.10;88.60
66190;DHT22;52992;52.084;5.412;2023-08-06T11:23:31;19.00;88.30
66190;DHT22;52992;52.084;5.412;2023-08-06T11:25:58;19.00;88.00
66190;DHT22;52992;52.084;5.412;2023-08-06T11:28:25;18.90;88.10
66190;DHT22;52992;52.084;5.412;2023-08-06T11:30:52;18.90;88.80
66190;DHT22;52992;52.084;5.412;2023-08-06T11:33:23;18.90;88.70
66190;DHT22;52992;52.084;5.412;2023-08-06T11:35:55;19.00;88.90
66190;DHT22;52992;52.084;5.412;2023-08-06T11:38:28;19.00;88.20
66190;DHT22;52992;52.084;5.412;2023-08-06T11:40:55;19.10;87.90
66190;DHT22;52992;52.084;5.412;2023-08-06T11:43:22;19.00;87.10
66190;DHT22;52992;52.084;5.412;2023-08-06T11:45:50;19.00;88.00
66190;DHT22;52992;52.084;5.412;2023-08-06T11:48:21;19.10;88.20
66190;DHT22;52992;52.084;5.412;2023-08-06T11:50:48;19.10;87.30
66190;DHT22;52992;52.084;5.412;2023-08-06T11:53:15;19.10;87.00
66190;DHT22;52992;52.084;5.412;2023-08-06T11:55:42;19.00;86.70
66190;DHT22;52992;52.084;5.412;2023-08-06T11:58:10;19.00;85.90
66190;DHT22;52992;52.084;5.412;2023-08-06T12:00:42;18.90;86.50
66190;DHT22;52992;52.084;5.412;2023-08-06T12:03:10;18.80;86.30
66190;DHT22;52992;52.084;5.412;2023-08-06T12:05:37;18.80;86.80
66190;DHT22;52992;52.084;5.412;2023-08-06T12:08:05;18.70;86.80
66190;DHT22;52992;52.084;5.412;2023-08-06T12:10:32;18.60;86.80
66190;DHT22;52992;52.084;5.412;2023-08-06T12:13:00;18.60;87.90
66190;DHT22;52992;52.084;5.412;2023-08-06T12:15:27;18.60;87.70
66190;DHT22;52992;52.084;5.412;2023-08-06T12:17:56;18.60;88.70
66190;DHT22;52992;52.084;5.412;2023-08-06T12:20:23;18.60;88.20
66190;DHT22;52992;52.084;5.412;2023-08-06T12:22:50;18.70;89.00
66190;DHT22;52992;52.084;5.412;2023-08-06T12:25:16;18.70;88.80
66190;DHT22;52992;52.084;5.412;2023-08-06T12:27:45;18.80;88.80
66190;DHT22;52992;52.084;5.412;2023-08-06T12:30:13;18.70;88.80
66190;DHT22;52992;52.084;5.412;2023-08-06T12:32:40;18.80;88.80
66190;DHT22;52992;52.084;5.412;2023-08-06T12:35:08;18.80;88.70
66190;DHT22;52992;52.084;5.412;2023-08-06T12:37:35;18.80;89.10
66190;DHT22;52992;52.084;5.412;2023-08-06T12:40:02;18.90;89.00
66190;DHT22;52992;52.084;5.412;2023-08-06T12:42:53;18.90;89.00
66190;DHT22;52992;52.084;5.412;2023-08-06T12:45:20;19.00;88.60
66190;DHT22;52992;52.084;5.412;2023-08-06T12:47:48;19.00;88.60
66190;DHT22;52992;52.084;5.412;2023-08-06T12:50:16;19.00;88.50
66190;DHT22;52992;52.084;5.412;2023-08-06T12:52:44;19.00;89.00
66190;DHT22;52992;52.084;5.412;2023-08-06T12:55:11;19.00;88.90
66190;DHT22;52992;52.084;5.412;2023-08-06T12:57:38;19.00;88.90
66190;DHT22;52992;52.084;5.412;2023-08-06T13:00:23;19.00;89.30
66190;DHT22;52992;52.084;5.412;2023-08-06T13:02:51;19.10;89.30
66190;DHT22;52992;52.084;5.412;2023-08-06T13:05:18;19.10;89.30
66190;DHT22;52992;52.084;5.412;2023-08-06T13:07:45;19.10;89.10
66190;DHT22;52992;52.084;5.412;2023-08-06T13:10:11;19.10;89.20
66190;DHT22;52992;52.084;5.412;2023-08-06T13:12:38;19.10;89.90
66190;DHT22;52992;52.084;5.412;2023-08-06T13:15:06;19.10;89.40
66190;DHT22;52992;52.084;5.412;2023-08-06T13:17:33;19.20;89.50
66190;DHT22;52992;52.084;5.412;2023-08-06T13:20:02;19.20;89.50
66190;DHT22;52992;52.084;5.412;2023-08-06T13:22:29;19.20;89.80
66190;DHT22;52992;52.084;5.412;2023-08-06T13:24:56;19.30;89.70
66190;DHT22;52992;52.084;5.412;2023-08-06T13:27:22;19.30;89.40
66190;DHT22;52992;52.084;5.412;2023-08-06T13:29:49;19.40;90.40
66190;DHT22;52992;52.084;5.412;2023-08-06T13:32:16;19.40;89.60
66190;DHT22;52992;52.084;5.412;2023-08-06T13:34:43;19.40;90.00
66190;DHT22;52992;52.084;5.412;2023-08-06T13:37:10;19.40;89.70
66190;DHT22;52992;52.084;5.412;2023-08-06T13:39:37;19.50;90.00
66190;DHT22;52992;52.084;5.412;2023-08-06T13:42:04;19.50;89.70
66190;DHT22;52992;52.084;5.412;2023-08-06T13:44:31;19.50;89.70
66190;DHT22;52992;52.084;5.412;2023-08-06T13:47:02;19.50;89.90
66190;DHT22;52992;52.084;5.412;2023-08-06T13:49:29;19.50;90.00
66190;DHT22;52992;52.084;5.412;2023-08-06T13:51:56;19.50;89.50
66190;DHT22;52992;52.084;5.412;2023-08-06T13:54:41;19.50;89.80
66190;DHT22;52992;52.084;5.412;2023-08-06T13:57:08;19.50;90.00
66190;DHT22;52992;52.084;5.412;2023-08-06T13:59:35;19.50;90.00
66190;DHT22;52992;52.084;5.412;2023-08-06T14:02:02;19.50;90.00
66190;DHT22;52992;52.084;5.412;2023-08-06T14:04:29;19.60;90.50
66190;DHT22;52992;52.084;5.412;2023-08-06T14:06:56;19.60;89.70
66190;DHT22;52992;52.084;5.412;2023-08-06T14:09:23;19.70;89.80
66190;DHT22;52992;52.084;5.412;2023-08-06T14:11:50;19.70;90.00
66190;DHT22;52992;52.084;5.412;2023-08-06T14:14:17;19.70;90.00
66190;DHT22;52992;52.084;5.412;2023-08-06T14:16:44;19.80;90.30
66190;DHT22;52992;52.084;5.412;2023-08-06T14:19:11;19.80;89.50
66190;DHT22;52992;52.084;5.412;2023-08-06T14:21:38;19.90;89.80
66190;DHT22;52992;52.084;5.412;2023-08-06T14:24:05;19.90;89.80
66190;DHT22;52992;52.084;5.412;2023-08-06T14:26:32;19.90;89.60
66190;DHT22;52992;52.084;5.412;2023-08-06T14:28:59;19.90;89.80
66190;DHT22;52992;52.084;5.412;2023-08-06T14:31:26;20.00;89.70
66190;DHT22;52992;52.084;5.412;2023-08-06T14:33:53;20.00;89.70
66190;DHT22;52992;52.084;5.412;2023-08-06T14:36:20;20.00;89.30
66190;DHT22;52992;52.084;5.412;2023-08-06T14:38:47;20.00;89.50
66190;DHT22;52992;52.084;5.412;2023-08-06T14:41:26;20.00;89.30
66190;DHT22;52992;52.084;5.412;2023-08-06T14:43:53;19.90;89.50
66190;DHT22;52992;52.084;5.412;2023-08-06T14:46:21;19.90;89.80
66190;DHT22;52992;52.084;5.412;2023-08-06T14:48:48;19.90;90.00
66190;DHT22;52992;52.084;5.412;2023-08-06T14:51:15;19.90;89.60
66190;DHT22;52992;52.084;5.412;2023-08-06T14:53:42;20.00;89.50
66190;DHT22;52992;52.084;5.412;2023-08-06T14:56:08;20.00;89.60
66190;DHT22;52992;52.084;5.412;2023-08-06T14:58:36;20.00;89.40
66190;DHT22;52992;52.084;5.412;2023-08-06T15:01:03;20.00;89.80
66190;DHT22;52992;52.084;5.412;2023-08-06T15:03:29;20.10;89.50
66190;DHT22;52992;52.084;5.412;2023-08-06T15:05:58;20.20;89.90
66190;DHT22;52992;52.084;5.412;2023-08-06T15:08:25;20.20;89.60
66190;DHT22;52992;52.084;5.412;2023-08-06T15:10:53;20.30;89.40
66190;DHT22;52992;52.084;5.412;2023-08-06T15:13:20;20.30;88.60
66190;DHT22;52992;52.084;5.412;2023-08-06T15:15:49;20.40;88.30
66190;DHT22;52992;52.084;5.412;2023-08-06T15:18:16;20.30;88.20
66190;DHT22;52992;52.084;5.412;2023-08-06T15:20:43;20.30;87.40
66190;DHT22;52992;52.084;5.412;2023-08-06T15:23:10;20.20;87.90
66190;DHT22;52992;52.084;5.412;2023-08-06T15:25:37;20.20;87.30
66190;DHT22;52992;52.084;5.412;2023-08-06T15:28:04;20.10;86.40
66190;DHT22;52992;52.084;5.412;2023-08-06T15:30:32;20.00;86.40
66190;DHT22;52992;52.084;5.412;2023-08-06T15:32:59;19.90;85.70
66190;DHT22;52992;52.084;5.412;2023-08-06T15:35:26;19.80;86.90
66190;DHT22;52992;52.084;5.412;2023-08-06T15:37:53;19.80;86.10
66190;DHT22;52992;52.084;5.412;2023-08-06T15:40:20;19.70;85.10
66190;DHT22;52992;52.084;5.412;2023-08-06T15:42:48;19.80;86.50